Terminal Aerodrome Forecast
Issued by NWS

Home | Current Version | Previous Version | Text Only | Print | Product List | Glossary On
Versions: 1 2 3 4 5 6 7 8 9 10 11 12 13 14 15 16
766
FTUS46 KPDT 271720
TAFDLS
TAF
KDLS 271720Z 2718/2818 32007KT P6SM SCT005 SCT030
     FM271900 30011KT P6SM SCT070 SCT100
     FM272100 31014G24KT P6SM SCT060 BKN080
     FM280300 30010KT P6SM SCT090 BKN150
     FM281500 31005KT P6SM BKN070 OVC150=

USA.gov is the U.S. government's official web portal to all federal, state and local government web resources and services.